sensor_id;sensor_type;location;lat;lon;timestamp;P1;durP1;ratioP1;P2;durP2;ratioP2
15408;SDS011;7803;48.130;13.788;2022-09-09T00:02:50;7.72;;;6.95;;
15408;SDS011;7803;48.130;13.788;2022-09-09T00:06:03;8.85;;;7.95;;
15408;SDS011;7803;48.130;13.788;2022-09-09T00:09:12;8.60;;;7.80;;
15408;SDS011;7803;48.130;13.788;2022-09-09T00:12:18;8.60;;;7.70;;
15408;SDS011;7803;48.130;13.788;2022-09-09T00:15:25;7.70;;;6.97;;
15408;SDS011;7803;48.130;13.788;2022-09-09T00:18:44;8.07;;;7.28;;
15408;SDS011;7803;48.130;13.788;2022-09-09T00:21:56;7.60;;;6.90;;
15408;SDS011;7803;48.130;13.788;2022-09-09T00:25:08;8.32;;;7.53;;
15408;SDS011;7803;48.130;13.788;2022-09-09T00:28:17;8.50;;;7.70;;
15408;SDS011;7803;48.130;13.788;2022-09-09T00:31:23;8.05;;;7.25;;
15408;SDS011;7803;48.130;13.788;2022-09-09T00:34:28;8.10;;;7.30;;
15408;SDS011;7803;48.130;13.788;2022-09-09T00:37:33;8.18;;;7.38;;
15408;SDS011;7803;48.130;13.788;2022-09-09T00:40:37;8.15;;;7.38;;
15408;SDS011;7803;48.130;13.788;2022-09-09T00:43:47;8.30;;;7.50;;
15408;SDS011;7803;48.130;13.788;2022-09-09T00:47:04;7.78;;;6.95;;
15408;SDS011;7803;48.130;13.788;2022-09-09T00:50:21;8.13;;;7.32;;
15408;SDS011;7803;48.130;13.788;2022-09-09T00:53:38;7.70;;;7.00;;
15408;SDS011;7803;48.130;13.788;2022-09-09T00:57:01;7.60;;;6.90;;
15408;SDS011;7803;48.130;13.788;2022-09-09T01:00:18;7.93;;;7.13;;
15408;SDS011;7803;48.130;13.788;2022-09-09T01:03:25;8.02;;;7.22;;
15408;SDS011;7803;48.130;13.788;2022-09-09T01:06:35;8.23;;;7.43;;
15408;SDS011;7803;48.130;13.788;2022-09-09T01:09:42;7.78;;;6.97;;
15408;SDS011;7803;48.130;13.788;2022-09-09T01:12:52;8.23;;;7.43;;
15408;SDS011;7803;48.130;13.788;2022-09-09T01:15:57;8.30;;;7.35;;
15408;SDS011;7803;48.130;13.788;2022-09-09T01:19:00;7.57;;;6.88;;
15408;SDS011;7803;48.130;13.788;2022-09-09T01:22:06;7.75;;;7.05;;
15408;SDS011;7803;48.130;13.788;2022-09-09T01:25:27;7.90;;;7.10;;
15408;SDS011;7803;48.130;13.788;2022-09-09T01:28:32;7.50;;;6.80;;
15408;SDS011;7803;48.130;13.788;2022-09-09T01:31:38;7.25;;;6.53;;
15408;SDS011;7803;48.130;13.788;2022-09-09T01:34:42;6.57;;;5.97;;
15408;SDS011;7803;48.130;13.788;2022-09-09T01:37:44;6.63;;;6.03;;
15408;SDS011;7803;48.130;13.788;2022-09-09T01:40:46;7.57;;;6.78;;
15408;SDS011;7803;48.130;13.788;2022-09-09T01:43:50;7.55;;;6.75;;
15408;SDS011;7803;48.130;13.788;2022-09-09T01:46:54;7.38;;;6.68;;
15408;SDS011;7803;48.130;13.788;2022-09-09T01:49:56;6.60;;;6.00;;
15408;SDS011;7803;48.130;13.788;2022-09-09T01:52:59;7.13;;;6.43;;
15408;SDS011;7803;48.130;13.788;2022-09-09T01:56:04;6.50;;;5.90;;
15408;SDS011;7803;48.130;13.788;2022-09-09T01:59:18;6.72;;;6.13;;
15408;SDS011;7803;48.130;13.788;2022-09-09T02:02:32;8.80;;;6.82;;
15408;SDS011;7803;48.130;13.788;2022-09-09T02:05:40;6.70;;;5.97;;
15408;SDS011;7803;48.130;13.788;2022-09-09T02:08:47;6.85;;;6.10;;
15408;SDS011;7803;48.130;13.788;2022-09-09T02:11:52;7.15;;;6.45;;
15408;SDS011;7803;48.130;13.788;2022-09-09T02:15:03;6.65;;;6.00;;
15408;SDS011;7803;48.130;13.788;2022-09-09T02:18:12;6.82;;;6.18;;
15408;SDS011;7803;48.130;13.788;2022-09-09T02:21:18;6.50;;;5.90;;
15408;SDS011;7803;48.130;13.788;2022-09-09T02:24:21;7.10;;;6.40;;
15408;SDS011;7803;48.130;13.788;2022-09-09T02:27:23;7.32;;;6.63;;
15408;SDS011;7803;48.130;13.788;2022-09-09T02:30:27;6.45;;;5.85;;
15408;SDS011;7803;48.130;13.788;2022-09-09T02:33:32;6.57;;;5.97;;
15408;SDS011;7803;48.130;13.788;2022-09-09T02:36:38;6.60;;;6.00;;
15408;SDS011;7803;48.130;13.788;2022-09-09T02:39:44;6.45;;;5.70;;
15408;SDS011;7803;48.130;13.788;2022-09-09T02:42:47;6.45;;;5.85;;
15408;SDS011;7803;48.130;13.788;2022-09-09T02:45:53;6.28;;;5.68;;
15408;SDS011;7803;48.130;13.788;2022-09-09T02:49:06;6.38;;;5.78;;
15408;SDS011;7803;48.130;13.788;2022-09-09T02:52:13;6.05;;;5.45;;
15408;SDS011;7803;48.130;13.788;2022-09-09T02:55:17;6.40;;;5.80;;
15408;SDS011;7803;48.130;13.788;2022-09-09T02:58:25;6.80;;;6.10;;
15408;SDS011;7803;48.130;13.788;2022-09-09T03:01:28;6.22;;;5.63;;
15408;SDS011;7803;48.130;13.788;2022-09-09T03:04:31;5.93;;;5.32;;
15408;SDS011;7803;48.130;13.788;2022-09-09T03:07:34;5.70;;;5.18;;
15408;SDS011;7803;48.130;13.788;2022-09-09T03:10:36;6.55;;;5.90;;
15408;SDS011;7803;48.130;13.788;2022-09-09T03:13:38;6.75;;;6.05;;
15408;SDS011;7803;48.130;13.788;2022-09-09T03:16:41;6.20;;;5.60;;
15408;SDS011;7803;48.130;13.788;2022-09-09T03:19:43;5.95;;;5.35;;
15408;SDS011;7803;48.130;13.788;2022-09-09T03:22:45;5.68;;;5.18;;
15408;SDS011;7803;48.130;13.788;2022-09-09T03:25:47;5.68;;;5.10;;
15408;SDS011;7803;48.130;13.788;2022-09-09T03:28:49;5.55;;;5.05;;
15408;SDS011;7803;48.130;13.788;2022-09-09T03:31:53;5.82;;;5.22;;
15408;SDS011;7803;48.130;13.788;2022-09-09T03:34:55;5.45;;;4.95;;
15408;SDS011;7803;48.130;13.788;2022-09-09T03:37:57;5.68;;;5.18;;
15408;SDS011;7803;48.130;13.788;2022-09-09T03:41:00;5.53;;;5.03;;
15408;SDS011;7803;48.130;13.788;2022-09-09T03:44:03;5.63;;;5.05;;
15408;SDS011;7803;48.130;13.788;2022-09-09T03:47:07;5.80;;;5.28;;
15408;SDS011;7803;48.130;13.788;2022-09-09T03:50:09;5.40;;;4.90;;
15408;SDS011;7803;48.130;13.788;2022-09-09T03:53:11;5.75;;;5.18;;
15408;SDS011;7803;48.130;13.788;2022-09-09T03:56:13;5.60;;;5.10;;
15408;SDS011;7803;48.130;13.788;2022-09-09T03:59:15;5.15;;;4.65;;
15408;SDS011;7803;48.130;13.788;2022-09-09T04:02:19;5.40;;;4.90;;
15408;SDS011;7803;48.130;13.788;2022-09-09T04:05:21;4.82;;;4.43;;
15408;SDS011;7803;48.130;13.788;2022-09-09T04:08:23;5.50;;;4.90;;
15408;SDS011;7803;48.130;13.788;2022-09-09T04:11:26;5.70;;;5.10;;
15408;SDS011;7803;48.130;13.788;2022-09-09T04:14:28;5.60;;;5.10;;
15408;SDS011;7803;48.130;13.788;2022-09-09T04:17:31;5.75;;;5.15;;
15408;SDS011;7803;48.130;13.788;2022-09-09T04:20:33;5.78;;;5.10;;
15408;SDS011;7803;48.130;13.788;2022-09-09T04:23:35;5.25;;;4.75;;
15408;SDS011;7803;48.130;13.788;2022-09-09T04:26:37;5.20;;;4.70;;
15408;SDS011;7803;48.130;13.788;2022-09-09T04:29:39;4.70;;;4.30;;
15408;SDS011;7803;48.130;13.788;2022-09-09T04:32:43;4.60;;;4.20;;
15408;SDS011;7803;48.130;13.788;2022-09-09T04:35:45;4.47;;;4.03;;
15408;SDS011;7803;48.130;13.788;2022-09-09T04:38:48;4.97;;;4.47;;
15408;SDS011;7803;48.130;13.788;2022-09-09T04:41:50;5.07;;;4.57;;
15408;SDS011;7803;48.130;13.788;2022-09-09T04:44:53;5.28;;;4.78;;
15408;SDS011;7803;48.130;13.788;2022-09-09T04:47:56;4.60;;;4.20;;
15408;SDS011;7803;48.130;13.788;2022-09-09T04:51:00;4.65;;;4.25;;
15408;SDS011;7803;48.130;13.788;2022-09-09T04:54:03;4.60;;;4.20;;
15408;SDS011;7803;48.130;13.788;2022-09-09T04:57:05;4.72;;;4.32;;
15408;SDS011;7803;48.130;13.788;2022-09-09T05:00:08;5.53;;;4.32;;
15408;SDS011;7803;48.130;13.788;2022-09-09T05:03:12;4.93;;;4.15;;
15408;SDS011;7803;48.130;13.788;2022-09-09T05:06:15;4.32;;;3.70;;
15408;SDS011;7803;48.130;13.788;2022-09-09T05:09:18;3.83;;;3.50;;
15408;SDS011;7803;48.130;13.788;2022-09-09T05:12:20;4.28;;;3.67;;
15408;SDS011;7803;48.130;13.788;2022-09-09T05:15:24;5.07;;;3.47;;
15408;SDS011;7803;48.130;13.788;2022-09-09T05:18:27;3.30;;;2.80;;
15408;SDS011;7803;48.130;13.788;2022-09-09T05:21:29;3.28;;;2.72;;
15408;SDS011;7803;48.130;13.788;2022-09-09T05:24:31;3.30;;;3.00;;
15408;SDS011;7803;48.130;13.788;2022-09-09T05:27:33;3.53;;;2.80;;
15408;SDS011;7803;48.130;13.788;2022-09-09T05:30:35;3.03;;;2.53;;
15408;SDS011;7803;48.130;13.788;2022-09-09T05:33:39;2.60;;;2.35;;
15408;SDS011;7803;48.130;13.788;2022-09-09T05:36:43;3.00;;;2.70;;
15408;SDS011;7803;48.130;13.788;2022-09-09T05:39:45;3.20;;;2.90;;
15408;SDS011;7803;48.130;13.788;2022-09-09T05:42:47;3.28;;;2.97;;
15408;SDS011;7803;48.130;13.788;2022-09-09T05:45:58;2.78;;;2.50;;
15408;SDS011;7803;48.130;13.788;2022-09-09T05:49:03;3.33;;;2.42;;
15408;SDS011;7803;48.130;13.788;2022-09-09T05:52:06;3.55;;;2.63;;
15408;SDS011;7803;48.130;13.788;2022-09-09T05:55:09;5.05;;;2.47;;
15408;SDS011;7803;48.130;13.788;2022-09-09T05:58:11;3.03;;;2.38;;
15408;SDS011;7803;48.130;13.788;2022-09-09T06:01:13;2.50;;;2.30;;
15408;SDS011;7803;48.130;13.788;2022-09-09T06:04:18;2.38;;;2.17;;
15408;SDS011;7803;48.130;13.788;2022-09-09T06:07:25;2.90;;;2.50;;
15408;SDS011;7803;48.130;13.788;2022-09-09T06:10:26;2.97;;;2.42;;
15408;SDS011;7803;48.130;13.788;2022-09-09T06:13:29;3.65;;;2.92;;
15408;SDS011;7803;48.130;13.788;2022-09-09T06:16:31;2.70;;;2.40;;
15408;SDS011;7803;48.130;13.788;2022-09-09T06:19:35;3.20;;;2.40;;
15408;SDS011;7803;48.130;13.788;2022-09-09T06:22:38;2.70;;;2.25;;
15408;SDS011;7803;48.130;13.788;2022-09-09T06:25:41;2.72;;;2.25;;
15408;SDS011;7803;48.130;13.788;2022-09-09T06:28:43;2.35;;;2.15;;
15408;SDS011;7803;48.130;13.788;2022-09-09T06:31:45;3.75;;;2.25;;
15408;SDS011;7803;48.130;13.788;2022-09-09T06:34:49;2.85;;;2.50;;
15408;SDS011;7803;48.130;13.788;2022-09-09T06:37:50;3.85;;;2.20;;
15408;SDS011;7803;48.130;13.788;2022-09-09T06:40:52;2.50;;;2.30;;
15408;SDS011;7803;48.130;13.788;2022-09-09T06:43:55;4.15;;;2.50;;
15408;SDS011;7803;48.130;13.788;2022-09-09T06:46:57;3.58;;;2.53;;
15408;SDS011;7803;48.130;13.788;2022-09-09T06:50:01;3.33;;;2.30;;
15408;SDS011;7803;48.130;13.788;2022-09-09T06:53:03;3.42;;;2.30;;
15408;SDS011;7803;48.130;13.788;2022-09-09T06:56:17;2.97;;;2.30;;
15408;SDS011;7803;48.130;13.788;2022-09-09T06:59:20;4.22;;;2.45;;
15408;SDS011;7803;48.130;13.788;2022-09-09T07:02:22;3.83;;;2.65;;
15408;SDS011;7803;48.130;13.788;2022-09-09T07:05:26;2.65;;;2.42;;
15408;SDS011;7803;48.130;13.788;2022-09-09T07:08:28;2.60;;;2.28;;
15408;SDS011;7803;48.130;13.788;2022-09-09T07:11:32;2.30;;;2.10;;
15408;SDS011;7803;48.130;13.788;2022-09-09T07:14:35;3.58;;;2.33;;
15408;SDS011;7803;48.130;13.788;2022-09-09T07:17:38;2.83;;;2.15;;
15408;SDS011;7803;48.130;13.788;2022-09-09T07:20:41;2.60;;;2.20;;
15408;SDS011;7803;48.130;13.788;2022-09-09T07:23:43;2.65;;;2.10;;
15408;SDS011;7803;48.130;13.788;2022-09-09T07:26:45;2.42;;;2.22;;
15408;SDS011;7803;48.130;13.788;2022-09-09T07:29:47;2.40;;;1.95;;
15408;SDS011;7803;48.130;13.788;2022-09-09T07:32:50;2.22;;;2.03;;
15408;SDS011;7803;48.130;13.788;2022-09-09T07:35:54;4.13;;;2.45;;
15408;SDS011;7803;48.130;13.788;2022-09-09T07:39:03;2.20;;;2.00;;
15408;SDS011;7803;48.130;13.788;2022-09-09T07:42:07;6.93;;;2.28;;
15408;SDS011;7803;48.130;13.788;2022-09-09T07:45:09;2.40;;;1.90;;
15408;SDS011;7803;48.130;13.788;2022-09-09T07:48:11;2.28;;;1.98;;
15408;SDS011;7803;48.130;13.788;2022-09-09T07:51:16;4.35;;;2.60;;
15408;SDS011;7803;48.130;13.788;2022-09-09T07:54:20;2.15;;;1.80;;
15408;SDS011;7803;48.130;13.788;2022-09-09T07:57:23;2.45;;;1.88;;
15408;SDS011;7803;48.130;13.788;2022-09-09T08:00:26;1.65;;;1.55;;
15408;SDS011;7803;48.130;13.788;2022-09-09T08:03:28;2.08;;;1.75;;
15408;SDS011;7803;48.130;13.788;2022-09-09T08:06:32;2.28;;;1.80;;
15408;SDS011;7803;48.130;13.788;2022-09-09T08:09:36;4.03;;;1.77;;
15408;SDS011;7803;48.130;13.788;2022-09-09T08:12:38;2.72;;;1.70;;
15408;SDS011;7803;48.130;13.788;2022-09-09T08:15:40;3.28;;;2.17;;
15408;SDS011;7803;48.130;13.788;2022-09-09T08:18:42;2.35;;;1.95;;
15408;SDS011;7803;48.130;13.788;2022-09-09T08:21:46;2.83;;;1.98;;
15408;SDS011;7803;48.130;13.788;2022-09-09T08:24:49;2.17;;;1.98;;
15408;SDS011;7803;48.130;13.788;2022-09-09T08:27:52;3.00;;;2.03;;
15408;SDS011;7803;48.130;13.788;2022-09-09T08:30:54;2.55;;;1.85;;
15408;SDS011;7803;48.130;13.788;2022-09-09T08:33:56;14.65;;;3.40;;
15408;SDS011;7803;48.130;13.788;2022-09-09T08:37:01;5.45;;;2.20;;
15408;SDS011;7803;48.130;13.788;2022-09-09T08:40:04;8.55;;;3.08;;
15408;SDS011;7803;48.130;13.788;2022-09-09T08:43:10;3.88;;;2.30;;
15408;SDS011;7803;48.130;13.788;2022-09-09T08:46:14;4.97;;;2.58;;
15408;SDS011;7803;48.130;13.788;2022-09-09T08:49:32;4.75;;;2.30;;
15408;SDS011;7803;48.130;13.788;2022-09-09T08:52:45;6.38;;;2.55;;
15408;SDS011;7803;48.130;13.788;2022-09-09T08:55:52;3.03;;;2.05;;
15408;SDS011;7803;48.130;13.788;2022-09-09T08:58:59;2.10;;;1.90;;
15408;SDS011;7803;48.130;13.788;2022-09-09T09:02:03;3.75;;;1.98;;
15408;SDS011;7803;48.130;13.788;2022-09-09T09:05:18;3.08;;;1.90;;
15408;SDS011;7803;48.130;13.788;2022-09-09T09:08:33;2.95;;;2.10;;
15408;SDS011;7803;48.130;13.788;2022-09-09T09:11:43;3.55;;;2.40;;
15408;SDS011;7803;48.130;13.788;2022-09-09T09:14:49;3.47;;;2.00;;
15408;SDS011;7803;48.130;13.788;2022-09-09T09:17:51;4.20;;;2.50;;
15408;SDS011;7803;48.130;13.788;2022-09-09T09:20:57;3.13;;;2.13;;
15408;SDS011;7803;48.130;13.788;2022-09-09T09:24:07;3.05;;;2.08;;
15408;SDS011;7803;48.130;13.788;2022-09-09T09:27:19;2.63;;;2.13;;
15408;SDS011;7803;48.130;13.788;2022-09-09T09:30:31;3.38;;;2.20;;
15408;SDS011;7803;48.130;13.788;2022-09-09T09:33:42;3.90;;;2.08;;
15408;SDS011;7803;48.130;13.788;2022-09-09T09:36:52;2.45;;;2.22;;
15408;SDS011;7803;48.130;13.788;2022-09-09T09:40:07;3.10;;;2.50;;
15408;SDS011;7803;48.130;13.788;2022-09-09T09:43:16;2.75;;;2.28;;
15408;SDS011;7803;48.130;13.788;2022-09-09T09:46:23;3.08;;;2.50;;
15408;SDS011;7803;48.130;13.788;2022-09-09T09:49:27;3.65;;;2.78;;
15408;SDS011;7803;48.130;13.788;2022-09-09T09:52:30;2.53;;;2.33;;
15408;SDS011;7803;48.130;13.788;2022-09-09T09:55:36;3.15;;;2.10;;
15408;SDS011;7803;48.130;13.788;2022-09-09T09:58:50;3.63;;;2.33;;
15408;SDS011;7803;48.130;13.788;2022-09-09T10:01:53;2.97;;;2.28;;
15408;SDS011;7803;48.130;13.788;2022-09-09T10:05:02;2.40;;;2.20;;
15408;SDS011;7803;48.130;13.788;2022-09-09T10:08:09;3.13;;;2.00;;
15408;SDS011;7803;48.130;13.788;2022-09-09T10:11:19;3.63;;;2.10;;
15408;SDS011;7803;48.130;13.788;2022-09-09T10:14:32;2.97;;;2.28;;
15408;SDS011;7803;48.130;13.788;2022-09-09T10:17:53;2.95;;;2.15;;
15408;SDS011;7803;48.130;13.788;2022-09-09T10:21:03;3.20;;;2.33;;
15408;SDS011;7803;48.130;13.788;2022-09-09T10:24:18;3.22;;;2.40;;
15408;SDS011;7803;48.130;13.788;2022-09-09T10:27:36;3.00;;;2.15;;
15408;SDS011;7803;48.130;13.788;2022-09-09T10:30:46;2.83;;;2.10;;
15408;SDS011;7803;48.130;13.788;2022-09-09T10:34:00;2.42;;;2.10;;
15408;SDS011;7803;48.130;13.788;2022-09-09T10:37:16;2.78;;;2.38;;
15408;SDS011;7803;48.130;13.788;2022-09-09T10:40:30;2.80;;;2.30;;
15408;SDS011;7803;48.130;13.788;2022-09-09T10:43:42;2.22;;;1.92;;
15408;SDS011;7803;48.130;13.788;2022-09-09T10:47:14;2.30;;;1.90;;
15408;SDS011;7803;48.130;13.788;2022-09-09T10:50:42;3.95;;;2.50;;
15408;SDS011;7803;48.130;13.788;2022-09-09T10:53:53;2.65;;;2.35;;
15408;SDS011;7803;48.130;13.788;2022-09-09T10:57:09;2.50;;;2.10;;
15408;SDS011;7803;48.130;13.788;2022-09-09T11:00:16;2.22;;;1.95;;
15408;SDS011;7803;48.130;13.788;2022-09-09T11:03:23;2.83;;;2.05;;
15408;SDS011;7803;48.130;13.788;2022-09-09T11:06:30;2.40;;;2.20;;
15408;SDS011;7803;48.130;13.788;2022-09-09T11:09:38;3.58;;;2.35;;
15408;SDS011;7803;48.130;13.788;2022-09-09T11:12:44;3.17;;;2.40;;
15408;SDS011;7803;48.130;13.788;2022-09-09T11:15:52;2.58;;;1.95;;
15408;SDS011;7803;48.130;13.788;2022-09-09T11:19:02;2.70;;;2.50;;
15408;SDS011;7803;48.130;13.788;2022-09-09T11:22:14;3.78;;;2.67;;
15408;SDS011;7803;48.130;13.788;2022-09-09T11:25:25;2.80;;;2.20;;
15408;SDS011;7803;48.130;13.788;2022-09-09T11:28:34;3.45;;;2.10;;
15408;SDS011;7803;48.130;13.788;2022-09-09T11:31:53;3.95;;;2.45;;
15408;SDS011;7803;48.130;13.788;2022-09-09T11:35:07;6.53;;;2.63;;
15408;SDS011;7803;48.130;13.788;2022-09-09T11:38:25;5.57;;;2.78;;
15408;SDS011;7803;48.130;13.788;2022-09-09T11:41:32;4.35;;;2.78;;
15408;SDS011;7803;48.130;13.788;2022-09-09T11:44:37;4.00;;;2.88;;
15408;SDS011;7803;48.130;13.788;2022-09-09T11:47:50;3.97;;;2.33;;
15408;SDS011;7803;48.130;13.788;2022-09-09T11:50:57;3.72;;;2.60;;
15408;SDS011;7803;48.130;13.788;2022-09-09T11:54:01;3.50;;;2.38;;
15408;SDS011;7803;48.130;13.788;2022-09-09T11:57:05;3.53;;;2.50;;
15408;SDS011;7803;48.130;13.788;2022-09-09T12:00:31;3.38;;;2.70;;
15408;SDS011;7803;48.130;13.788;2022-09-09T12:03:41;3.58;;;2.40;;
15408;SDS011;7803;48.130;13.788;2022-09-09T12:06:46;3.75;;;2.50;;
15408;SDS011;7803;48.130;13.788;2022-09-09T12:09:52;3.55;;;2.38;;
15408;SDS011;7803;48.130;13.788;2022-09-09T12:13:07;2.65;;;2.40;;
15408;SDS011;7803;48.130;13.788;2022-09-09T12:16:27;2.90;;;2.30;;
15408;SDS011;7803;48.130;13.788;2022-09-09T12:19:34;3.67;;;2.67;;
15408;SDS011;7803;48.130;13.788;2022-09-09T12:22:37;3.35;;;2.90;;
15408;SDS011;7803;48.130;13.788;2022-09-09T12:26:16;4.03;;;2.60;;
15408;SDS011;7803;48.130;13.788;2022-09-09T12:29:29;3.63;;;2.70;;
15408;SDS011;7803;48.130;13.788;2022-09-09T12:32:38;3.55;;;2.40;;
15408;SDS011;7803;48.130;13.788;2022-09-09T12:35:42;5.10;;;2.47;;
15408;SDS011;7803;48.130;13.788;2022-09-09T12:38:47;2.78;;;2.35;;
15408;SDS011;7803;48.130;13.788;2022-09-09T12:41:51;3.30;;;2.70;;
15408;SDS011;7803;48.130;13.788;2022-09-09T12:44:57;5.03;;;2.60;;
15408;SDS011;7803;48.130;13.788;2022-09-09T12:48:01;3.30;;;2.40;;
15408;SDS011;7803;48.130;13.788;2022-09-09T12:51:16;3.40;;;2.65;;
15408;SDS011;7803;48.130;13.788;2022-09-09T12:54:20;3.47;;;2.70;;
15408;SDS011;7803;48.130;13.788;2022-09-09T12:57:23;3.13;;;2.50;;
15408;SDS011;7803;48.130;13.788;2022-09-09T13:00:27;3.08;;;2.65;;
15408;SDS011;7803;48.130;13.788;2022-09-09T13:03:30;2.75;;;2.40;;
15408;SDS011;7803;48.130;13.788;2022-09-09T13:06:34;2.67;;;2.30;;
15408;SDS011;7803;48.130;13.788;2022-09-09T13:09:36;2.80;;;2.47;;
15408;SDS011;7803;48.130;13.788;2022-09-09T13:12:38;3.90;;;2.58;;
15408;SDS011;7803;48.130;13.788;2022-09-09T13:15:47;2.63;;;2.40;;
15408;SDS011;7803;48.130;13.788;2022-09-09T13:18:51;3.15;;;2.60;;
15408;SDS011;7803;48.130;13.788;2022-09-09T13:21:57;3.15;;;2.55;;
15408;SDS011;7803;48.130;13.788;2022-09-09T13:25:01;4.03;;;2.75;;
15408;SDS011;7803;48.130;13.788;2022-09-09T13:28:05;3.80;;;2.58;;
15408;SDS011;7803;48.130;13.788;2022-09-09T13:31:22;2.97;;;2.60;;
15408;SDS011;7803;48.130;13.788;2022-09-09T13:34:28;2.85;;;2.40;;
15408;SDS011;7803;48.130;13.788;2022-09-09T13:37:33;2.58;;;2.38;;
15408;SDS011;7803;48.130;13.788;2022-09-09T13:40:37;3.00;;;2.60;;
15408;SDS011;7803;48.130;13.788;2022-09-09T13:43:42;3.75;;;2.60;;
15408;SDS011;7803;48.130;13.788;2022-09-09T13:46:47;5.47;;;2.90;;
15408;SDS011;7803;48.130;13.788;2022-09-09T13:49:49;5.05;;;4.55;;
15408;SDS011;7803;48.130;13.788;2022-09-09T13:52:53;7.25;;;4.05;;
15408;SDS011;7803;48.130;13.788;2022-09-09T13:55:58;4.97;;;4.47;;
15408;SDS011;7803;48.130;13.788;2022-09-09T13:59:01;3.90;;;3.47;;
15408;SDS011;7803;48.130;13.788;2022-09-09T14:02:04;3.30;;;3.00;;
15408;SDS011;7803;48.130;13.788;2022-09-09T14:05:06;3.60;;;2.55;;
15408;SDS011;7803;48.130;13.788;2022-09-09T14:08:11;3.10;;;2.80;;
15408;SDS011;7803;48.130;13.788;2022-09-09T14:11:26;3.80;;;2.70;;
15408;SDS011;7803;48.130;13.788;2022-09-09T14:14:28;3.25;;;2.50;;
15408;SDS011;7803;48.130;13.788;2022-09-09T14:17:30;2.70;;;2.50;;
15408;SDS011;7803;48.130;13.788;2022-09-09T14:20:33;2.97;;;2.70;;
15408;SDS011;7803;48.130;13.788;2022-09-09T14:23:36;3.47;;;2.75;;
15408;SDS011;7803;48.130;13.788;2022-09-09T14:26:38;4.95;;;2.60;;
15408;SDS011;7803;48.130;13.788;2022-09-09T14:29:40;3.45;;;2.60;;
15408;SDS011;7803;48.130;13.788;2022-09-09T14:32:43;3.10;;;2.80;;
15408;SDS011;7803;48.130;13.788;2022-09-09T14:35:45;3.42;;;2.42;;
15408;SDS011;7803;48.130;13.788;2022-09-09T14:38:49;3.65;;;2.50;;
15408;SDS011;7803;48.130;13.788;2022-09-09T14:41:51;2.50;;;2.30;;
15408;SDS011;7803;48.130;13.788;2022-09-09T14:44:52;2.85;;;2.20;;
15408;SDS011;7803;48.130;13.788;2022-09-09T14:47:54;4.05;;;2.50;;
15408;SDS011;7803;48.130;13.788;2022-09-09T14:50:57;3.63;;;2.42;;
15408;SDS011;7803;48.130;13.788;2022-09-09T14:54:08;4.00;;;2.72;;
15408;SDS011;7803;48.130;13.788;2022-09-09T14:57:10;2.90;;;2.60;;
15408;SDS011;7803;48.130;13.788;2022-09-09T15:00:13;4.07;;;2.38;;
15408;SDS011;7803;48.130;13.788;2022-09-09T15:03:16;2.70;;;2.38;;
15408;SDS011;7803;48.130;13.788;2022-09-09T15:06:18;3.28;;;2.40;;
15408;SDS011;7803;48.130;13.788;2022-09-09T15:09:22;2.63;;;2.42;;
15408;SDS011;7803;48.130;13.788;2022-09-09T15:12:24;3.67;;;2.30;;
15408;SDS011;7803;48.130;13.788;2022-09-09T15:15:27;2.80;;;2.42;;
15408;SDS011;7803;48.130;13.788;2022-09-09T15:18:30;6.35;;;2.10;;
15408;SDS011;7803;48.130;13.788;2022-09-09T15:21:32;5.68;;;2.40;;
15408;SDS011;7803;48.130;13.788;2022-09-09T15:24:37;4.03;;;2.55;;
15408;SDS011;7803;48.130;13.788;2022-09-09T15:27:39;3.90;;;2.50;;
15408;SDS011;7803;48.130;13.788;2022-09-09T15:30:41;6.15;;;2.30;;
15408;SDS011;7803;48.130;13.788;2022-09-09T15:33:48;2.90;;;2.20;;
15408;SDS011;7803;48.130;13.788;2022-09-09T15:36:51;4.55;;;2.13;;
15408;SDS011;7803;48.130;13.788;2022-09-09T15:39:56;3.42;;;2.58;;
15408;SDS011;7803;48.130;13.788;2022-09-09T15:42:59;4.97;;;2.80;;
15408;SDS011;7803;48.130;13.788;2022-09-09T15:46:05;3.78;;;2.40;;
15408;SDS011;7803;48.130;13.788;2022-09-09T15:49:24;3.22;;;2.33;;
15408;SDS011;7803;48.130;13.788;2022-09-09T15:52:27;3.42;;;2.28;;
15408;SDS011;7803;48.130;13.788;2022-09-09T15:55:30;4.90;;;2.30;;
15408;SDS011;7803;48.130;13.788;2022-09-09T15:58:32;4.07;;;2.40;;
15408;SDS011;7803;48.130;13.788;2022-09-09T16:01:36;4.78;;;2.08;;
15408;SDS011;7803;48.130;13.788;2022-09-09T16:04:39;5.82;;;2.55;;
15408;SDS011;7803;48.130;13.788;2022-09-09T16:07:41;5.30;;;2.45;;
15408;SDS011;7803;48.130;13.788;2022-09-09T16:10:46;4.80;;;2.50;;
15408;SDS011;7803;48.130;13.788;2022-09-09T16:13:48;4.57;;;2.25;;
15408;SDS011;7803;48.130;13.788;2022-09-09T16:16:52;2.65;;;2.20;;
15408;SDS011;7803;48.130;13.788;2022-09-09T16:19:54;5.18;;;2.40;;
15408;SDS011;7803;48.130;13.788;2022-09-09T16:22:57;3.78;;;2.10;;
15408;SDS011;7803;48.130;13.788;2022-09-09T16:26:03;6.32;;;2.30;;
15408;SDS011;7803;48.130;13.788;2022-09-09T16:29:05;3.08;;;2.20;;
15408;SDS011;7803;48.130;13.788;2022-09-09T16:32:08;3.20;;;2.20;;
15408;SDS011;7803;48.130;13.788;2022-09-09T16:35:11;3.60;;;2.20;;
15408;SDS011;7803;48.130;13.788;2022-09-09T16:38:13;4.88;;;2.35;;
15408;SDS011;7803;48.130;13.788;2022-09-09T16:41:18;4.00;;;2.60;;
15408;SDS011;7803;48.130;13.788;2022-09-09T16:44:20;3.33;;;2.20;;
15408;SDS011;7803;48.130;13.788;2022-09-09T16:47:22;3.85;;;2.20;;
15408;SDS011;7803;48.130;13.788;2022-09-09T16:50:24;4.10;;;2.08;;
15408;SDS011;7803;48.130;13.788;2022-09-09T16:53:26;4.20;;;2.20;;
15408;SDS011;7803;48.130;13.788;2022-09-09T16:56:30;4.18;;;2.00;;
15408;SDS011;7803;48.130;13.788;2022-09-09T16:59:34;3.47;;;2.28;;
15408;SDS011;7803;48.130;13.788;2022-09-09T17:02:36;2.53;;;2.08;;
15408;SDS011;7803;48.130;13.788;2022-09-09T17:05:39;3.95;;;2.10;;
15408;SDS011;7803;48.130;13.788;2022-09-09T17:08:41;3.17;;;2.50;;
15408;SDS011;7803;48.130;13.788;2022-09-09T17:11:45;3.85;;;2.20;;
15408;SDS011;7803;48.130;13.788;2022-09-09T17:14:47;3.67;;;2.10;;
15408;SDS011;7803;48.130;13.788;2022-09-09T17:17:49;3.08;;;1.80;;
15408;SDS011;7803;48.130;13.788;2022-09-09T17:20:53;3.17;;;2.00;;
15408;SDS011;7803;48.130;13.788;2022-09-09T17:23:55;2.35;;;2.00;;
15408;SDS011;7803;48.130;13.788;2022-09-09T17:26:59;4.45;;;1.95;;
15408;SDS011;7803;48.130;13.788;2022-09-09T17:30:02;3.53;;;2.10;;
15408;SDS011;7803;48.130;13.788;2022-09-09T17:33:04;3.65;;;2.10;;
15408;SDS011;7803;48.130;13.788;2022-09-09T17:36:07;2.95;;;2.22;;
15408;SDS011;7803;48.130;13.788;2022-09-09T17:39:11;3.78;;;2.15;;
15408;SDS011;7803;48.130;13.788;2022-09-09T17:42:14;4.13;;;2.10;;
15408;SDS011;7803;48.130;13.788;2022-09-09T17:45:16;3.63;;;1.85;;
15408;SDS011;7803;48.130;13.788;2022-09-09T17:48:19;3.55;;;2.05;;
15408;SDS011;7803;48.130;13.788;2022-09-09T17:51:21;2.40;;;2.10;;
15408;SDS011;7803;48.130;13.788;2022-09-09T17:54:27;3.35;;;2.33;;
15408;SDS011;7803;48.130;13.788;2022-09-09T17:57:31;4.30;;;2.13;;
15408;SDS011;7803;48.130;13.788;2022-09-09T18:00:33;2.70;;;2.00;;
15408;SDS011;7803;48.130;13.788;2022-09-09T18:03:35;3.83;;;2.00;;
15408;SDS011;7803;48.130;13.788;2022-09-09T18:06:39;3.63;;;2.05;;
15408;SDS011;7803;48.130;13.788;2022-09-09T18:09:43;2.70;;;1.70;;
15408;SDS011;7803;48.130;13.788;2022-09-09T18:12:47;4.32;;;1.95;;
15408;SDS011;7803;48.130;13.788;2022-09-09T18:15:49;3.30;;;2.10;;
15408;SDS011;7803;48.130;13.788;2022-09-09T18:18:51;4.47;;;2.33;;
15408;SDS011;7803;48.130;13.788;2022-09-09T18:21:55;3.22;;;1.75;;
15408;SDS011;7803;48.130;13.788;2022-09-09T18:24:57;2.50;;;1.73;;
15408;SDS011;7803;48.130;13.788;2022-09-09T18:28:00;2.58;;;2.10;;
15408;SDS011;7803;48.130;13.788;2022-09-09T18:31:06;2.75;;;1.90;;
15408;SDS011;7803;48.130;13.788;2022-09-09T18:34:10;2.10;;;1.90;;
15408;SDS011;7803;48.130;13.788;2022-09-09T18:37:14;2.63;;;1.90;;
15408;SDS011;7803;48.130;13.788;2022-09-09T18:40:17;4.15;;;1.90;;